Time;durP1;ratioP1;P1;durP2;ratioP2;P2;SDS_P1;SDS_P2;PMS_P1;PMS_P2;Temp;Humidity;BMP_temperature;BMP_pressure;BME280_temperature;BME280_humidity;BME280_pressure;Samples;Min_cycle;Max_cycle;Signal;HPM_P1;HPM_P2
2022/01/20 00:03:31;;;;;;;;;;;;;;;1.82;76.30;97140.00;5046068;28;19994;-75
2022/01/20 00:27:38;;;;;;;;;;;;;;;1.93;77.05;97130.41;5060282;28;19958;-74
2022/01/20 00:35:24;;;;;;;;;;;;;;;1.92;77.10;97129.59;5052412;28;20428;-76
2022/01/20 00:37:50;;;;;;;;;;;;;;;1.90;76.63;97126.34;5044421;28;19965;-75
2022/01/20 00:40:16;;;;;;;;;;;;;;;1.89;77.10;97132.47;5043361;28;19963;-74
2022/01/20 00:42:42;;;;;;;;;;;;;;;1.94;77.20;97137.22;5034833;28;19958;-74
2022/01/20 00:45:08;;;;;;;;;;;;;;;1.97;76.97;97137.72;5034148;28;20386;-75
2022/01/20 00:47:35;;;;;;;;;;;;;;;2.03;76.99;97141.50;5050435;28;19967;-74
2022/01/20 00:50:00;;;;;;;;;;;;;;;2.06;77.17;97141.22;5039895;28;20021;-75
2022/01/20 00:52:26;;;;;;;;;;;;;;;2.09;76.60;97142.69;5043865;28;19974;-74
2022/01/20 00:54:52;;;;;;;;;;;;;;;2.11;76.83;97144.16;5054294;28;19960;-75
2022/01/20 00:57:18;;;;;;;;;;;;;;;2.14;77.32;97150.81;5055053;28;19952;-74
2022/01/20 00:59:44;;;;;;;;;;;;;;;2.13;76.76;97150.00;5034407;28;20404;-74
2022/01/20 01:02:11;;;;;;;;;;;;;;;2.15;76.64;97157.63;5051995;28;19954;-74
2022/01/20 01:04:38;;;;;;;;;;;;;;;2.12;76.71;97150.16;5065693;28;19943;-74
2022/01/20 01:09:38;;;;;;;;;;;;;;;2.15;76.71;97155.03;5060329;28;19958;-74
2022/01/20 01:12:07;;;;;;;;;;;;;;;2.15;76.91;97150.69;5058296;28;19975;-74
2022/01/20 01:14:34;;;;;;;;;;;;;;;2.15;76.56;97148.09;5053019;28;20409;-74
2022/01/20 01:24:39;;;;;;;;;;;;;;;1.98;76.93;97157.47;5048545;28;19955;-75
2022/01/20 01:27:05;;;;;;;;;;;;;;;1.98;76.78;97167.81;5054948;28;19952;-75
2022/01/20 01:32:19;;;;;;;;;;;;;;;2.06;77.03;97169.69;5046993;28;19967;-76
2022/01/20 01:34:50;;;;;;;;;;;;;;;2.07;77.14;97162.72;5052282;28;19958;-76
2022/01/20 01:40:00;;;;;;;;;;;;;;;2.05;76.84;97162.06;5034108;28;19960;-75
2022/01/20 01:42:34;;;;;;;;;;;;;;;2.03;77.36;97162.19;5061432;28;19961;-76
2022/01/20 01:45:10;;;;;;;;;;;;;;;2.02;77.52;97163.97;5051834;28;19966;-75
2022/01/20 01:47:36;;;;;;;;;;;;;;;2.00;77.84;97165.88;5039885;28;20412;-73
2022/01/20 01:50:03;;;;;;;;;;;;;;;1.96;77.78;97156.00;5053934;28;19968;-73
2022/01/20 01:52:28;;;;;;;;;;;;;;;1.91;78.19;97161.59;5054575;28;19983;-74
2022/01/20 01:54:55;;;;;;;;;;;;;;;1.90;78.35;97159.16;5050534;28;20046;-76
2022/01/20 01:57:23;;;;;;;;;;;;;;;1.94;78.34;97156.13;5042028;28;19955;-75
2022/01/20 01:59:49;;;;;;;;;;;;;;;1.92;77.95;97158.03;5061394;28;19959;-76
2022/01/20 02:02:15;;;;;;;;;;;;;;;1.93;78.17;97159.69;5051327;28;19967;-76
2022/01/20 02:04:41;;;;;;;;;;;;;;;1.94;77.89;97158.72;5053136;28;19957;-74
2022/01/20 02:17:54;;;;;;;;;;;;;;;2.08;77.75;97170.34;5048056;28;19962;-75
2022/01/20 02:20:20;;;;;;;;;;;;;;;2.11;78.13;97156.28;5049313;28;19949;-74
2022/01/20 02:22:46;;;;;;;;;;;;;;;2.07;77.57;97153.19;5054331;28;20015;-77
2022/01/20 02:25:23;;;;;;;;;;;;;;;2.02;78.25;97147.66;5064141;28;20041;-76
2022/01/20 02:27:49;;;;;;;;;;;;;;;1.99;78.79;97150.50;5055280;28;20030;-75
2022/01/20 02:30:16;;;;;;;;;;;;;;;1.92;79.96;97144.31;5047319;28;19947;-75
2022/01/20 02:32:42;;;;;;;;;;;;;;;1.87;79.38;97146.50;5060042;28;19980;-74
2022/01/20 02:35:10;;;;;;;;;;;;;;;1.86;79.01;97147.47;5044153;28;19962;-74
2022/01/20 02:37:37;;;;;;;;;;;;;;;1.86;79.30;97139.72;5068312;28;20320;-74
2022/01/20 02:45:14;;;;;;;;;;;;;;;1.83;79.87;97154.56;5036747;28;19978;-77
2022/01/20 02:47:40;;;;;;;;;;;;;;;1.82;80.35;97147.75;5068597;28;19951;-75
2022/01/20 02:50:06;;;;;;;;;;;;;;;1.82;80.02;97145.16;5058554;28;19957;-76
2022/01/20 02:52:32;;;;;;;;;;;;;;;1.80;79.78;97146.28;5062900;28;19988;-76
2022/01/20 02:54:58;;;;;;;;;;;;;;;1.79;80.73;97136.91;5054473;28;20314;-75
2022/01/20 02:57:24;;;;;;;;;;;;;;;1.77;80.06;97144.78;5064103;28;19963;-75
2022/01/20 02:59:50;;;;;;;;;;;;;;;1.77;80.79;97139.63;5044522;28;19952;-74
2022/01/20 03:02:16;;;;;;;;;;;;;;;1.80;80.19;97147.06;5052416;28;19965;-74
2022/01/20 03:04:43;;;;;;;;;;;;;;;1.80;80.48;97149.66;5068488;28;20335;-74
2022/01/20 03:07:08;;;;;;;;;;;;;;;1.83;80.26;97151.16;5036989;28;19958;-76
2022/01/20 03:09:35;;;;;;;;;;;;;;;1.87;79.82;97149.91;5060422;28;19958;-75
2022/01/20 03:12:01;;;;;;;;;;;;;;;1.89;80.60;97147.16;5036341;28;19973;-74
2022/01/20 03:14:27;;;;;;;;;;;;;;;1.87;80.68;97146.50;5062675;28;19959;-76
2022/01/20 03:16:53;;;;;;;;;;;;;;;1.85;81.90;97156.19;5073847;28;19958;-74
2022/01/20 03:19:19;;;;;;;;;;;;;;;1.85;81.57;97151.00;5046592;28;19975;-79
2022/01/20 03:21:45;;;;;;;;;;;;;;;1.81;82.36;97153.88;5057688;28;20338;-74
2022/01/20 03:24:11;;;;;;;;;;;;;;;1.80;82.22;97157.41;5060821;28;19973;-75
2022/01/20 03:26:37;;;;;;;;;;;;;;;1.79;81.92;97158.41;5050941;28;19970;-79
2022/01/20 03:29:05;;;;;;;;;;;;;;;1.81;82.41;97156.47;5045029;28;19965;-77
2022/01/20 03:31:31;;;;;;;;;;;;;;;1.80;82.61;97154.03;5055119;28;19968;-75
2022/01/20 03:34:00;;;;;;;;;;;;;;;1.78;83.31;97156.75;5044679;28;20342;-76
2022/01/20 03:36:26;;;;;;;;;;;;;;;1.78;82.78;97153.34;5061497;28;19953;-75
2022/01/20 03:38:52;;;;;;;;;;;;;;;1.81;82.80;97155.66;5052713;28;20050;-76
2022/01/20 03:41:18;;;;;;;;;;;;;;;1.79;82.42;97150.63;5048851;28;20039;-77
2022/01/20 03:43:44;;;;;;;;;;;;;;;1.82;82.66;97155.50;5059525;28;19955;-77
2022/01/20 03:46:12;;;;;;;;;;;;;;;1.82;83.44;97144.34;5064473;28;19958;-76
2022/01/20 03:48:50;;;;;;;;;;;;;;;1.81;83.03;97145.31;5057573;28;19958;-77
2022/01/20 03:51:24;;;;;;;;;;;;;;;1.81;83.26;97150.50;5057682;28;20340;-76
2022/01/20 03:53:51;;;;;;;;;;;;;;;1.80;83.83;97148.84;5057129;28;20452;-76
2022/01/20 03:56:17;;;;;;;;;;;;;;;1.81;83.22;97147.91;5072438;28;19951;-77
2022/01/20 03:58:43;;;;;;;;;;;;;;;1.84;83.29;97145.03;5044216;28;19962;-74
2022/01/20 04:01:10;;;;;;;;;;;;;;;1.87;83.84;97146.50;5052070;28;19964;-75
2022/01/20 04:03:36;;;;;;;;;;;;;;;1.87;83.23;97143.91;5048296;28;19964;-75
2022/01/20 04:06:02;;;;;;;;;;;;;;;1.89;83.03;97147.16;5067084;28;20044;-75
2022/01/20 04:08:38;;;;;;;;;;;;;;;1.91;83.45;97148.66;5054957;28;19963;-78
2022/01/20 04:11:05;;;;;;;;;;;;;;;1.92;83.18;97152.06;5050484;28;19954;-76
2022/01/20 04:13:32;;;;;;;;;;;;;;;1.91;83.39;97153.00;5050928;28;19966;-76
2022/01/20 04:16:00;;;;;;;;;;;;;;;1.91;82.93;97142.66;5051981;28;19962;-76
2022/01/20 04:18:27;;;;;;;;;;;;;;;1.94;82.52;97153.53;5060132;28;19961;-77
2022/01/20 04:20:54;;;;;;;;;;;;;;;1.98;82.47;97147.13;5060388;28;19990;-77
2022/01/20 04:23:20;;;;;;;;;;;;;;;1.97;82.87;97148.06;5047738;28;20302;-77
2022/01/20 04:25:45;;;;;;;;;;;;;;;1.98;82.54;97154.06;5044098;28;20056;-77
2022/01/20 04:28:12;;;;;;;;;;;;;;;1.97;82.78;97171.34;5071024;28;20014;-81
2022/01/20 04:30:38;;;;;;;;;;;;;;;1.98;82.71;97161.84;5055158;28;19962;-77
2022/01/20 04:33:04;;;;;;;;;;;;;;;1.97;82.59;97162.78;5044288;28;19963;-76
2022/01/20 04:35:30;;;;;;;;;;;;;;;1.98;82.71;97167.00;5046983;28;19957;-76
2022/01/20 04:37:57;;;;;;;;;;;;;;;1.99;82.88;97176.38;5049783;28;20005;-74
2022/01/20 04:40:23;;;;;;;;;;;;;;;1.98;82.69;97174.75;5050366;28;19951;-75
2022/01/20 04:42:50;;;;;;;;;;;;;;;1.99;82.81;97176.38;5053854;28;20310;-75
2022/01/20 04:45:30;;;;;;;;;;;;;;;2.00;82.41;97172.84;5048026;28;19966;-74
2022/01/20 04:48:13;;;;;;;;;;;;;;;1.94;83.70;97163.88;5056305;28;19951;-75
2022/01/20 04:58:54;;;;;;;;;;;;;;;1.66;84.45;97152.75;5034316;28;19959;-74
2022/01/20 05:01:20;;;;;;;;;;;;;;;1.60;84.67;97154.13;5045091;28;19955;-74
2022/01/20 05:03:46;;;;;;;;;;;;;;;1.60;84.56;97146.38;5051392;28;19949;-75
2022/01/20 05:06:12;;;;;;;;;;;;;;;1.58;86.25;97143.13;5072668;28;19968;-75
2022/01/20 05:08:38;;;;;;;;;;;;;;;1.54;84.64;97149.53;5043761;28;19958;-74
2022/01/20 05:11:04;;;;;;;;;;;;;;;1.56;84.01;97145.03;5047863;28;19972;-74
2022/01/20 05:13:37;;;;;;;;;;;;;;;1.59;84.81;97151.69;5047726;28;19973;-75
2022/01/20 05:16:03;;;;;;;;;;;;;;;1.59;84.97;97157.66;5051766;28;19967;-75
2022/01/20 05:18:29;;;;;;;;;;;;;;;1.60;84.29;97151.56;5053091;28;19956;-74
2022/01/20 05:20:55;;;;;;;;;;;;;;;1.64;84.51;97149.50;5052497;28;19968;-75
2022/01/20 05:23:21;;;;;;;;;;;;;;;1.68;84.27;97153.44;5048727;28;19950;-74
2022/01/20 05:25:48;;;;;;;;;;;;;;;1.71;84.75;97154.91;5056749;28;19976;-75
2022/01/20 05:28:13;;;;;;;;;;;;;;;1.68;84.18;97145.69;5058422;28;20033;-76
2022/01/20 05:30:40;;;;;;;;;;;;;;;1.69;84.06;97156.81;5059096;28;20410;-76
2022/01/20 05:33:07;;;;;;;;;;;;;;;1.68;85.22;97157.75;5069192;28;19975;-76
2022/01/20 05:35:33;;;;;;;;;;;;;;;1.66;84.15;97160.53;5052280;28;20023;-75
2022/01/20 05:37:59;;;;;;;;;;;;;;;1.66;84.35;97157.09;5055507;28;19958;-75
2022/01/20 05:40:25;;;;;;;;;;;;;;;1.64;84.53;97165.03;5063417;28;19959;-76
2022/01/20 05:42:51;;;;;;;;;;;;;;;1.62;85.03;97167.75;5053411;28;19960;-79
2022/01/20 05:45:17;;;;;;;;;;;;;;;1.61;84.43;97165.28;5055636;28;19976;-75
2022/01/20 05:47:46;;;;;;;;;;;;;;;1.62;84.53;97167.75;5059151;28;20549;-76
2022/01/20 05:50:20;;;;;;;;;;;;;;;1.63;84.78;97176.31;5055006;28;19959;-76
2022/01/20 05:52:46;;;;;;;;;;;;;;;1.63;85.28;97181.47;5054272;28;19972;-76
2022/01/20 05:55:14;;;;;;;;;;;;;;;1.61;85.22;97184.19;5057180;28;19958;-77
2022/01/20 05:57:40;;;;;;;;;;;;;;;1.60;85.32;97174.81;5051701;28;19957;-75
2022/01/20 06:00:08;;;;;;;;;;;;;;;1.57;86.39;97180.25;5059582;28;19958;-75
2022/01/20 06:02:36;;;;;;;;;;;;;;;1.54;86.00;97179.75;5054751;28;19981;-76
2022/01/20 06:05:04;;;;;;;;;;;;;;;1.54;86.73;97187.50;5048471;28;19958;-76
2022/01/20 06:07:29;;;;;;;;;;;;;;;1.54;86.42;97180.56;5058694;28;20025;-77
2022/01/20 06:09:55;;;;;;;;;;;;;;;1.57;85.86;97171.69;5071226;28;19959;-80
2022/01/20 06:12:21;;;;;;;;;;;;;;;1.62;85.65;97172.09;5059727;28;19981;-77
2022/01/20 06:14:47;;;;;;;;;;;;;;;1.63;85.81;97174.53;5039030;28;19960;-77
2022/01/20 06:17:13;;;;;;;;;;;;;;;1.62;85.67;97167.75;5059434;28;20397;-77
2022/01/20 06:19:39;;;;;;;;;;;;;;;1.63;86.15;97168.53;5063505;28;19952;-77
2022/01/20 06:22:05;;;;;;;;;;;;;;;1.62;86.28;97166.94;5061582;28;20046;-77
2022/01/20 06:24:31;;;;;;;;;;;;;;;1.60;86.01;97174.03;5061551;28;19958;-79
2022/01/20 06:26:57;;;;;;;;;;;;;;;1.58;85.83;97160.41;5064692;28;19962;-77
2022/01/20 06:29:23;;;;;;;;;;;;;;;1.59;85.77;97175.75;5047511;28;20491;-77
2022/01/20 06:31:49;;;;;;;;;;;;;;;1.61;86.10;97171.25;5065809;28;19948;-77
2022/01/20 06:34:15;;;;;;;;;;;;;;;1.64;86.65;97165.03;5056141;28;20397;-77
2022/01/20 06:36:40;;;;;;;;;;;;;;;1.64;86.38;97167.59;5054750;28;19965;-76
2022/01/20 06:39:06;;;;;;;;;;;;;;;1.67;86.68;97171.66;5041520;28;19967;-77
2022/01/20 06:41:37;;;;;;;;;;;;;;;1.68;86.51;97178.44;5037112;28;19960;-77
2022/01/20 06:44:03;;;;;;;;;;;;;;;1.65;86.77;97184.72;5036571;28;19963;-78
2022/01/20 06:46:29;;;;;;;;;;;;;;;1.66;86.13;97177.78;5063778;28;19957;-78
2022/01/20 06:48:54;;;;;;;;;;;;;;;1.66;86.59;97168.28;5052812;28;20042;-77
2022/01/20 06:51:20;;;;;;;;;;;;;;;1.67;86.53;97166.50;5068966;28;20478;-76
2022/01/20 06:53:46;;;;;;;;;;;;;;;1.65;87.01;97161.47;5047870;28;19986;-76
2022/01/20 06:56:12;;;;;;;;;;;;;;;1.64;87.02;97172.78;5056750;28;19962;-76
2022/01/20 06:58:38;;;;;;;;;;;;;;;1.60;87.22;97164.47;5021639;28;20043;-76
2022/01/20 07:01:04;;;;;;;;;;;;;;;1.56;88.29;97177.84;5057517;28;20391;-77
2022/01/20 07:03:30;;;;;;;;;;;;;;;1.51;88.75;97178.28;5046569;28;19998;-77
2022/01/20 07:05:56;;;;;;;;;;;;;;;1.52;88.53;97192.00;5060829;28;19984;-75
2022/01/20 07:08:22;;;;;;;;;;;;;;;1.52;88.08;97192.81;5065065;28;20327;-74
2022/01/20 07:10:48;;;;;;;;;;;;;;;1.54;88.01;97190.09;5048626;28;19952;-74
2022/01/20 07:13:14;;;;;;;;;;;;;;;1.56;87.87;97196.75;5048906;28;20013;-75
2022/01/20 07:15:40;;;;;;;;;;;;;;;1.57;86.94;97194.97;5037684;28;20000;-75
2022/01/20 07:18:06;;;;;;;;;;;;;;;1.58;87.33;97194.84;5044375;28;19956;-75
2022/01/20 07:20:32;;;;;;;;;;;;;;;1.57;87.08;97200.13;5063435;28;19971;-75
2022/01/20 07:22:57;;;;;;;;;;;;;;;1.55;87.03;97208.03;5058336;28;20013;-76
2022/01/20 07:25:23;;;;;;;;;;;;;;;1.54;87.62;97219.34;5047316;28;20003;-75
2022/01/20 07:27:49;;;;;;;;;;;;;;;1.54;87.70;97219.34;5056893;28;19959;-75
2022/01/20 07:30:15;;;;;;;;;;;;;;;1.55;87.08;97222.72;5068736;28;19963;-76
2022/01/20 07:32:41;;;;;;;;;;;;;;;1.56;86.82;97232.13;5051723;28;20429;-74
2022/01/20 07:35:07;;;;;;;;;;;;;;;1.54;87.19;97229.69;5051804;28;20303;-74
2022/01/20 07:37:33;;;;;;;;;;;;;;;1.55;86.11;97230.50;5052962;28;19958;-75
2022/01/20 07:39:59;;;;;;;;;;;;;;;1.53;86.00;97230.63;5039064;28;19959;-75
2022/01/20 07:42:25;;;;;;;;;;;;;;;1.56;85.97;97235.53;5058127;28;19955;-76
2022/01/20 07:44:51;;;;;;;;;;;;;;;1.59;86.22;97244.75;5067950;28;19960;-76
2022/01/20 07:47:16;;;;;;;;;;;;;;;1.60;85.61;97249.78;5064063;28;19984;-75
2022/01/20 07:49:42;;;;;;;;;;;;;;;1.64;85.62;97247.75;5056288;28;19955;-76
2022/01/20 07:52:10;;;;;;;;;;;;;;;1.68;85.18;97254.28;5045261;28;19977;-75
2022/01/20 07:54:36;;;;;;;;;;;;;;;1.70;84.84;97248.94;5054843;28;20471;-76
2022/01/20 07:57:04;;;;;;;;;;;;;;;1.81;84.89;97251.34;5048915;28;19960;-75
2022/01/20 07:59:30;;;;;;;;;;;;;;;2.07;84.42;97248.91;5051753;28;19952;-75
2022/01/20 08:01:56;;;;;;;;;;;;;;;2.37;83.73;97247.78;5065759;28;19958;-75
2022/01/20 08:04:22;;;;;;;;;;;;;;;2.63;82.54;97249.66;5055097;28;20331;-76
2022/01/20 08:06:48;;;;;;;;;;;;;;;2.86;81.51;97244.84;5054252;28;19959;-75
2022/01/20 08:09:14;;;;;;;;;;;;;;;3.07;80.99;97252.28;5047570;28;19964;-75
2022/01/20 08:11:41;;;;;;;;;;;;;;;3.29;79.43;97250.97;5055990;28;19958;-75
2022/01/20 08:14:07;;;;;;;;;;;;;;;3.50;78.56;97265.38;5060895;28;20381;-75
2022/01/20 08:16:33;;;;;;;;;;;;;;;3.64;77.94;97254.44;5057974;28;19952;-76
2022/01/20 08:18:59;;;;;;;;;;;;;;;3.82;77.20;97260.38;5026815;28;19965;-76
2022/01/20 08:21:25;;;;;;;;;;;;;;;4.08;76.42;97259.50;5051582;28;19960;-76
2022/01/20 08:23:50;;;;;;;;;;;;;;;4.31;76.07;97266.72;5052053;28;20044;-76
2022/01/20 08:26:16;;;;;;;;;;;;;;;4.54;75.71;97279.94;5053319;28;19955;-76
2022/01/20 08:28:42;;;;;;;;;;;;;;;4.52;75.05;97280.09;5042507;28;19965;-76
2022/01/20 08:31:08;;;;;;;;;;;;;;;4.41;74.35;97281.19;5034639;28;19962;-76
2022/01/20 08:33:34;;;;;;;;;;;;;;;4.25;74.61;97281.94;5055812;28;20458;-76
2022/01/20 08:36:00;;;;;;;;;;;;;;;4.08;75.18;97295.84;5056630;28;19954;-76
2022/01/20 08:38:26;;;;;;;;;;;;;;;3.90;75.35;97285.53;5055886;28;19956;-75
2022/01/20 08:40:52;;;;;;;;;;;;;;;3.73;76.28;97284.63;5044158;28;20045;-75
2022/01/20 08:43:18;;;;;;;;;;;;;;;3.52;76.74;97286.78;5049121;28;19954;-76
2022/01/20 08:45:46;;;;;;;;;;;;;;;3.31;77.15;97280.16;5057446;28;20482;-75
2022/01/20 08:48:13;;;;;;;;;;;;;;;3.16;77.16;97299.81;5034422;28;19961;-75
2022/01/20 08:50:40;;;;;;;;;;;;;;;3.01;78.04;97291.75;5040280;28;19957;-75
2022/01/20 08:53:06;;;;;;;;;;;;;;;2.99;86.54;97299.66;5057029;28;19989;-78
2022/01/20 08:55:33;;;;;;;;;;;;;;;3.70;99.25;97299.72;5044187;28;20308;-77
2022/01/20 08:57:59;;;;;;;;;;;;;;;4.24;80.68;97297.66;5057890;28;19956;-75
2022/01/20 09:00:26;;;;;;;;;;;;;;;4.18;76.78;97293.09;5065243;28;19956;-76
2022/01/20 09:02:52;;;;;;;;;;;;;;;3.99;76.49;97302.78;5055143;28;19955;-75
2022/01/20 09:05:18;;;;;;;;;;;;;;;3.81;77.50;97304.63;5047283;28;20322;-76
2022/01/20 09:07:45;;;;;;;;;;;;;;;3.68;78.33;97306.84;5048166;28;19958;-76
2022/01/20 09:10:18;;;;;;;;;;;;;;;3.54;78.33;97303.81;5050707;28;19956;-76
2022/01/20 09:15:31;;;;;;;;;;;;;;;3.32;78.60;97315.50;5056590;28;19967;-75
2022/01/20 09:18:08;;;;;;;;;;;;;;;3.28;78.36;97316.75;5048646;28;19982;-75
2022/01/20 09:20:35;;;;;;;;;;;;;;;3.26;78.75;97326.47;5066178;28;20330;-76
2022/01/20 09:23:01;;;;;;;;;;;;;;;3.22;78.34;97331.13;5059531;28;19960;-76
2022/01/20 09:25:27;;;;;;;;;;;;;;;3.15;78.33;97319.75;5052921;28;19951;-75
2022/01/20 09:27:55;;;;;;;;;;;;;;;3.14;78.43;97330.25;5050686;28;19961;-75
2022/01/20 09:30:22;;;;;;;;;;;;;;;3.10;77.38;97323.72;5065498;28;19958;-75
2022/01/20 09:35:34;;;;;;;;;;;;;;;2.98;78.54;97318.78;5054520;28;19947;-75
2022/01/20 09:38:01;;;;;;;;;;;;;;;2.97;78.35;97318.94;5050791;28;20009;-75
2022/01/20 09:40:29;;;;;;;;;;;;;;;2.98;78.46;97317.94;5076598;28;19953;-76
2022/01/20 09:42:55;;;;;;;;;;;;;;;3.00;78.14;97316.03;5051344;28;20440;-75
2022/01/20 09:45:21;;;;;;;;;;;;;;;3.00;77.55;97323.78;5057802;28;19955;-75
2022/01/20 09:47:47;;;;;;;;;;;;;;;3.03;78.48;97331.28;5062648;28;19965;-75
2022/01/20 09:50:14;;;;;;;;;;;;;;;3.00;78.20;97319.47;5049178;28;19947;-75
2022/01/20 09:52:40;;;;;;;;;;;;;;;2.97;78.85;97319.72;5058170;28;19981;-76
2022/01/20 09:55:06;;;;;;;;;;;;;;;2.97;78.71;97329.28;5061681;28;19968;-75
2022/01/20 09:57:32;;;;;;;;;;;;;;;3.00;78.79;97324.63;5058580;28;19961;-74
2022/01/20 09:59:59;;;;;;;;;;;;;;;3.05;78.68;97327.59;5075529;28;20003;-78
2022/01/20 10:02:25;;;;;;;;;;;;;;;3.10;78.56;97329.72;5059537;28;19960;-75
2022/01/20 10:04:52;;;;;;;;;;;;;;;3.14;78.30;97331.06;5028519;28;19962;-75
2022/01/20 10:07:18;;;;;;;;;;;;;;;3.17;78.74;97325.59;5076463;28;19959;-75
2022/01/20 10:09:47;;;;;;;;;;;;;;;3.19;78.02;97315.88;5054694;28;19970;-75
2022/01/20 10:12:15;;;;;;;;;;;;;;;3.19;77.65;97317.63;5046685;28;19953;-75
2022/01/20 10:14:43;;;;;;;;;;;;;;;3.18;77.76;97313.44;5068706;28;19972;-75
2022/01/20 10:17:16;;;;;;;;;;;;;;;3.17;77.78;97294.50;5058234;28;19955;-75
2022/01/20 10:19:43;;;;;;;;;;;;;;;3.20;77.85;97303.72;5052461;28;20285;-75
2022/01/20 10:22:14;;;;;;;;;;;;;;;3.20;77.64;97312.31;5053658;28;20434;-75
2022/01/20 10:24:41;;;;;;;;;;;;;;;3.24;78.05;97310.25;5047323;28;19956;-75
2022/01/20 10:27:09;;;;;;;;;;;;;;;3.24;78.16;97302.47;5068024;28;20409;-75
2022/01/20 10:29:35;;;;;;;;;;;;;;;3.24;77.40;97310.25;5056638;28;20024;-77
2022/01/20 10:32:01;;;;;;;;;;;;;;;3.24;77.13;97311.06;5059769;28;19956;-75
2022/01/20 10:34:34;;;;;;;;;;;;;;;3.23;77.32;97313.78;5050935;28;19972;-75
2022/01/20 10:37:04;;;;;;;;;;;;;;;3.23;77.21;97317.22;5056451;28;19968;-76
2022/01/20 10:39:37;;;;;;;;;;;;;;;3.25;77.27;97309.28;5063093;28;19964;-75
2022/01/20 10:42:07;;;;;;;;;;;;;;;3.27;77.72;97322.91;5049140;28;19951;-75
2022/01/20 10:44:48;;;;;;;;;;;;;;;3.31;76.66;97315.63;5054589;28;19955;-75
2022/01/20 10:47:18;;;;;;;;;;;;;;;3.28;76.71;97310.78;5049748;28;20376;-75
2022/01/20 10:49:45;;;;;;;;;;;;;;;3.33;76.98;97311.13;5069029;28;19957;-75
2022/01/20 10:52:12;;;;;;;;;;;;;;;3.38;76.38;97314.91;5048540;28;19977;-75
2022/01/20 10:54:40;;;;;;;;;;;;;;;3.40;76.62;97312.13;5053539;28;19981;-75
2022/01/20 10:57:07;;;;;;;;;;;;;;;3.39;76.43;97316.50;5061695;28;19963;-74
2022/01/20 10:59:34;;;;;;;;;;;;;;;3.36;76.67;97303.88;5056882;28;19982;-75
2022/01/20 11:02:04;;;;;;;;;;;;;;;3.33;76.56;97296.38;5055690;28;19955;-75
2022/01/20 11:04:30;;;;;;;;;;;;;;;3.32;77.42;97310.31;5054042;28;19959;-75
2022/01/20 11:06:59;;;;;;;;;;;;;;;3.42;83.24;97305.84;5063632;28;19957;-75
2022/01/20 11:09:27;;;;;;;;;;;;;;;3.58;77.66;97310.31;5055186;28;19954;-75
2022/01/20 11:11:52;;;;;;;;;;;;;;;3.59;76.56;97308.53;5054548;28;19957;-75
2022/01/20 11:14:18;;;;;;;;;;;;;;;3.54;76.76;97313.38;5056823;28;19970;-75
2022/01/20 11:16:44;;;;;;;;;;;;;;;3.46;77.36;97314.13;5045991;28;20298;-74
2022/01/20 11:19:32;;;;;;;;;;;;;;;3.34;78.00;97304.94;5071029;28;19960;-75
2022/01/20 11:22:09;;;;;;;;;;;;;;;3.27;78.42;97304.75;5051303;28;19978;-75
2022/01/20 11:24:35;;;;;;;;;;;;;;;3.22;78.90;97300.03;5036126;28;20325;-75
2022/01/20 11:27:02;;;;;;;;;;;;;;;3.18;78.75;97298.69;5059035;28;19951;-75
2022/01/20 11:30:01;;;;;;;;;;;;;;;3.19;79.58;97302.94;5073935;28;20327;-74
2022/01/20 11:32:27;;;;;;;;;;;;;;;3.20;80.04;97295.97;5040960;28;19963;-75
2022/01/20 11:35:04;;;;;;;;;;;;;;;3.19;79.63;97297.75;5047151;28;19974;-75
2022/01/20 11:37:34;;;;;;;;;;;;;;;3.18;80.29;97295.28;5066203;28;19956;-74
2022/01/20 11:40:19;;;;;;;;;;;;;;;3.15;80.08;97295.56;5055770;28;19956;-74
2022/01/20 11:43:08;;;;;;;;;;;;;;;3.12;80.41;97296.69;5043228;28;20397;-74
2022/01/20 11:45:35;;;;;;;;;;;;;;;3.11;80.34;97295.09;5049137;28;19956;-75
2022/01/20 11:48:16;;;;;;;;;;;;;;;3.07;80.55;97290.31;5058352;28;19955;-75
2022/01/20 11:50:43;;;;;;;;;;;;;;;3.05;80.73;97287.91;5064756;28;19959;-75
2022/01/20 11:53:16;;;;;;;;;;;;;;;3.04;80.98;97288.84;5052939;28;21100;-74
2022/01/20 11:55:47;;;;;;;;;;;;;;;3.04;81.06;97284.50;5050248;28;19961;-75
2022/01/20 11:58:14;;;;;;;;;;;;;;;3.03;80.47;97282.88;5065941;28;19961;-75
2022/01/20 12:00:41;;;;;;;;;;;;;;;3.03;80.73;97280.28;5055697;28;20507;-75
2022/01/20 12:03:14;;;;;;;;;;;;;;;3.04;80.55;97271.56;5041777;28;19956;-76
2022/01/20 12:05:40;;;;;;;;;;;;;;;3.03;80.65;97275.09;5056085;28;20402;-75
2022/01/20 12:08:10;;;;;;;;;;;;;;;3.03;80.18;97271.69;5060546;28;20327;-74
2022/01/20 12:10:36;;;;;;;;;;;;;;;3.04;80.88;97275.91;5063531;28;19947;-75
2022/01/20 12:13:09;;;;;;;;;;;;;;;3.05;80.68;97260.22;5054848;28;19964;-74
2022/01/20 12:15:46;;;;;;;;;;;;;;;3.05;81.17;97262.00;5057094;28;19978;-76
2022/01/20 12:18:13;;;;;;;;;;;;;;;3.05;81.33;97260.22;5039984;28;19948;-75
2022/01/20 12:20:39;;;;;;;;;;;;;;;3.07;82.43;97262.66;5044102;28;19965;-75
2022/01/20 12:23:04;;;;;;;;;;;;;;;3.05;81.66;97259.41;5073551;28;19961;-74
2022/01/20 12:25:33;;;;;;;;;;;;;;;3.04;82.11;97257.75;5053162;28;20297;-74
2022/01/20 12:28:06;;;;;;;;;;;;;;;3.02;83.34;97257.09;5042771;28;19956;-75
2022/01/20 12:30:33;;;;;;;;;;;;;;;2.99;82.89;97255.63;5073787;28;19964;-76
2022/01/20 12:33:14;;;;;;;;;;;;;;;2.97;83.48;97246.38;5055075;28;19956;-75
2022/01/20 12:35:41;;;;;;;;;;;;;;;2.94;83.04;97247.50;5038945;28;19974;-74
2022/01/20 12:38:13;;;;;;;;;;;;;;;2.92;83.71;97257.19;5067075;28;19951;-74
2022/01/20 12:40:39;;;;;;;;;;;;;;;2.87;83.34;97253.41;5044860;28;19952;-75
2022/01/20 12:43:05;;;;;;;;;;;;;;;2.82;83.90;97246.09;5059318;28;19946;-76
2022/01/20 12:48:17;;;;;;;;;;;;;;;2.77;84.44;97251.72;5054491;28;19963;-76
2022/01/20 12:50:53;;;;;;;;;;;;;;;2.80;84.96;97260.97;5049770;28;19958;-75
2022/01/20 12:53:29;;;;;;;;;;;;;;;2.92;85.14;97270.16;5045525;28;19979;-75
2022/01/20 12:55:55;;;;;;;;;;;;;;;3.00;84.10;97261.59;5073012;28;19966;-76
2022/01/20 12:58:21;;;;;;;;;;;;;;;2.99;83.64;97267.78;5053300;28;20008;-75
2022/01/20 13:01:01;;;;;;;;;;;;;;;3.00;82.65;97259.03;5052583;28;19953;-75
2022/01/20 13:03:40;;;;;;;;;;;;;;;3.02;83.65;97260.53;5062882;28;20024;-76
2022/01/20 13:06:09;;;;;;;;;;;;;;;3.06;83.21;97261.00;5048293;28;19954;-75
2022/01/20 13:08:39;;;;;;;;;;;;;;;3.09;82.38;97263.31;5066086;28;19966;-75
2022/01/20 13:11:08;;;;;;;;;;;;;;;3.03;82.21;97256.94;5043427;28;19952;-75
2022/01/20 13:13:34;;;;;;;;;;;;;;;3.01;82.00;97263.25;5050121;28;19968;-75
2022/01/20 13:16:13;;;;;;;;;;;;;;;3.02;81.62;97267.47;5053395;28;19965;-75
2022/01/20 13:18:39;;;;;;;;;;;;;;;3.03;80.75;97256.16;5072710;28;19954;-75
2022/01/20 13:21:07;;;;;;;;;;;;;;;3.03;81.49;97256.16;5040936;28;19966;-75
2022/01/20 13:23:56;;;;;;;;;;;;;;;3.02;79.46;97255.34;5039734;28;19962;-76
2022/01/20 13:26:22;;;;;;;;;;;;;;;3.06;79.93;97255.81;5044306;28;19952;-75
2022/01/20 13:28:57;;;;;;;;;;;;;;;3.05;77.41;97255.03;5054814;28;19959;-75
2022/01/20 13:31:23;;;;;;;;;;;;;;;3.01;77.55;97264.06;5052560;28;20404;-75
2022/01/20 13:33:49;;;;;;;;;;;;;;;2.95;77.77;97302.72;5071984;28;19969;-75
2022/01/20 13:36:16;;;;;;;;;;;;;;;2.65;78.00;97299.53;5053613;28;20062;-74
2022/01/20 13:38:48;;;;;;;;;;;;;;;2.21;78.45;97300.19;5043136;28;19968;-75
2022/01/20 13:41:18;;;;;;;;;;;;;;;1.67;79.38;97309.50;5057359;28;19947;-74
2022/01/20 13:46:33;;;;;;;;;;;;;;;0.81;83.07;97315.44;5061155;28;20300;-75
2022/01/20 13:49:09;;;;;;;;;;;;;;;0.56;84.10;97316.75;5044555;28;19947;-76
2022/01/20 13:51:35;;;;;;;;;;;;;;;0.34;84.85;97322.16;5043999;28;19983;-76
2022/01/20 13:54:02;;;;;;;;;;;;;;;0.25;86.37;97326.34;5064275;28;19984;-75
2022/01/20 13:56:29;;;;;;;;;;;;;;;0.24;86.53;97329.06;5067386;28;19969;-77
2022/01/20 13:59:03;;;;;;;;;;;;;;;0.30;87.27;97338.88;5043872;28;19955;-75
2022/01/20 14:01:29;;;;;;;;;;;;;;;0.39;87.93;97333.72;5069089;28;20325;-75
2022/01/20 14:03:55;;;;;;;;;;;;;;;0.51;87.08;97326.69;5056836;28;19961;-75
2022/01/20 14:06:21;;;;;;;;;;;;;;;0.59;88.42;97329.41;5045014;28;19958;-75
2022/01/20 14:08:48;;;;;;;;;;;;;;;0.68;87.38;97334.75;5053101;28;19972;-75
2022/01/20 14:11:14;;;;;;;;;;;;;;;0.76;87.58;97327.16;5062414;28;19957;-75
2022/01/20 14:13:40;;;;;;;;;;;;;;;0.77;86.81;97328.75;5046020;28;19958;-76
2022/01/20 14:16:07;;;;;;;;;;;;;;;0.80;86.39;97331.09;5050966;28;20057;-75
2022/01/20 14:18:41;;;;;;;;;;;;;;;0.84;85.70;97329.88;5064644;28;19961;-75
2022/01/20 14:21:12;;;;;;;;;;;;;;;0.84;85.89;97327.28;5053637;28;19962;-76